sensor_id;sensor_type;location;lat;lon;timestamp;pressure;altitude;pressure_sealevel;temperature;humidity
48216;BME280;34005;48.844;10.098;2023-02-23T00:01:25;96320.75;;;9.52;63.94
48216;BME280;34005;48.844;10.098;2023-02-23T00:03:53;96322.53;;;9.51;64.83
48216;BME280;34005;48.844;10.098;2023-02-23T00:06:22;96321.16;;;9.55;65.80
48216;BME280;34005;48.844;10.098;2023-02-23T00:08:51;96318.63;;;9.62;66.02
48216;BME280;34005;48.844;10.098;2023-02-23T00:11:20;96317.50;;;9.64;64.87
48216;BME280;34005;48.844;10.098;2023-02-23T00:13:49;96315.06;;;9.63;64.43
48216;BME280;34005;48.844;10.098;2023-02-23T00:16:19;96312.63;;;9.61;65.23
48216;BME280;34005;48.844;10.098;2023-02-23T00:18:48;96309.22;;;9.61;64.62
48216;BME280;34005;48.844;10.098;2023-02-23T00:21:17;96319.00;;;9.59;64.27
48216;BME280;34005;48.844;10.098;2023-02-23T00:23:48;96313.72;;;9.52;64.63
48216;BME280;34005;48.844;10.098;2023-02-23T00:26:16;96316.72;;;9.49;64.06
48216;BME280;34005;48.844;10.098;2023-02-23T00:28:48;96312.03;;;9.44;64.58
48216;BME280;34005;48.844;10.098;2023-02-23T00:31:17;96308.81;;;9.42;64.93
48216;BME280;34005;48.844;10.098;2023-02-23T00:33:48;96308.53;;;9.37;64.93
48216;BME280;34005;48.844;10.098;2023-02-23T00:36:16;96310.72;;;9.34;65.16
48216;BME280;34005;48.844;10.098;2023-02-23T00:38:44;96308.28;;;9.32;65.24
48216;BME280;34005;48.844;10.098;2023-02-23T00:41:13;96313.81;;;9.29;65.68
48216;BME280;34005;48.844;10.098;2023-02-23T00:43:43;96302.63;;;9.28;65.49
48216;BME280;34005;48.844;10.098;2023-02-23T00:46:14;96314.81;;;9.28;65.95
48216;BME280;34005;48.844;10.098;2023-02-23T00:48:43;96305.03;;;9.30;67.12
48216;BME280;34005;48.844;10.098;2023-02-23T00:51:12;96306.72;;;9.38;67.44
48216;BME280;34005;48.844;10.098;2023-02-23T00:53:40;96315.25;;;9.46;67.43
48216;BME280;34005;48.844;10.098;2023-02-23T00:56:09;96311.28;;;9.51;66.39
48216;BME280;34005;48.844;10.098;2023-02-23T00:58:37;96307.25;;;9.48;65.80
48216;BME280;34005;48.844;10.098;2023-02-23T01:01:05;96311.66;;;9.47;65.76
48216;BME280;34005;48.844;10.098;2023-02-23T01:03:35;96312.22;;;9.43;65.73
48216;BME280;34005;48.844;10.098;2023-02-23T01:06:05;96311.13;;;9.37;65.65
48216;BME280;34005;48.844;10.098;2023-02-23T01:08:33;96316.25;;;9.31;66.23
48216;BME280;34005;48.844;10.098;2023-02-23T01:11:05;96315.81;;;9.27;66.59
48216;BME280;34005;48.844;10.098;2023-02-23T01:13:34;96315.63;;;9.28;66.49
48216;BME280;34005;48.844;10.098;2023-02-23T01:16:03;96317.06;;;9.31;67.62
48216;BME280;34005;48.844;10.098;2023-02-23T01:18:35;96309.88;;;9.33;67.06
48216;BME280;34005;48.844;10.098;2023-02-23T01:21:04;96298.66;;;9.33;66.28
48216;BME280;34005;48.844;10.098;2023-02-23T01:23:32;96298.22;;;9.29;66.41
48216;BME280;34005;48.844;10.098;2023-02-23T01:25:59;96301.81;;;9.28;66.53
48216;BME280;34005;48.844;10.098;2023-02-23T01:28:27;96307.03;;;9.28;67.35
48216;BME280;34005;48.844;10.098;2023-02-23T01:30:54;96304.59;;;9.26;66.87
48216;BME280;34005;48.844;10.098;2023-02-23T01:33:22;96295.72;;;9.21;66.65
48216;BME280;34005;48.844;10.098;2023-02-23T01:35:59;96299.66;;;9.17;66.82
48216;BME280;34005;48.844;10.098;2023-02-23T01:38:26;96293.22;;;9.13;66.85
48216;BME280;34005;48.844;10.098;2023-02-23T01:40:54;96291.94;;;9.08;66.80
48216;BME280;34005;48.844;10.098;2023-02-23T01:43:22;96292.31;;;9.05;67.09
48216;BME280;34005;48.844;10.098;2023-02-23T01:45:53;96296.19;;;9.10;68.75
48216;BME280;34005;48.844;10.098;2023-02-23T01:48:24;96293.38;;;9.11;67.33
48216;BME280;34005;48.844;10.098;2023-02-23T01:50:55;96299.13;;;9.06;67.04
48216;BME280;34005;48.844;10.098;2023-02-23T01:53:26;96295.25;;;9.02;67.45
48216;BME280;34005;48.844;10.098;2023-02-23T01:55:57;96293.03;;;8.99;67.25
48216;BME280;34005;48.844;10.098;2023-02-23T01:58:27;96290.75;;;8.96;67.34
48216;BME280;34005;48.844;10.098;2023-02-23T02:00:57;96289.53;;;8.92;67.67
48216;BME280;34005;48.844;10.098;2023-02-23T02:03:31;96293.47;;;8.88;67.90
48216;BME280;34005;48.844;10.098;2023-02-23T02:06:01;96287.63;;;8.86;67.69
48216;BME280;34005;48.844;10.098;2023-02-23T02:08:31;96292.84;;;8.86;67.82
48216;BME280;34005;48.844;10.098;2023-02-23T02:11:00;96287.63;;;8.86;67.57
48216;BME280;34005;48.844;10.098;2023-02-23T02:13:34;96286.00;;;8.85;67.59
48216;BME280;34005;48.844;10.098;2023-02-23T02:16:16;96278.56;;;8.82;68.43
48216;BME280;34005;48.844;10.098;2023-02-23T02:19:00;96284.41;;;8.84;68.44
48216;BME280;34005;48.844;10.098;2023-02-23T02:21:49;96282.06;;;8.89;68.95
48216;BME280;34005;48.844;10.098;2023-02-23T02:24:41;96282.69;;;8.91;68.73
48216;BME280;34005;48.844;10.098;2023-02-23T02:27:23;96274.09;;;8.91;68.53
48216;BME280;34005;48.844;10.098;2023-02-23T02:33:28;96269.44;;;8.86;68.86
48216;BME280;34005;48.844;10.098;2023-02-23T02:36:18;96270.25;;;8.86;68.81
48216;BME280;34005;48.844;10.098;2023-02-23T02:38:59;96272.47;;;8.90;68.85
48216;BME280;34005;48.844;10.098;2023-02-23T02:41:35;96268.53;;;8.94;68.92
48216;BME280;34005;48.844;10.098;2023-02-23T02:44:13;96275.44;;;9.01;69.12
48216;BME280;34005;48.844;10.098;2023-02-23T02:46:45;96263.88;;;9.04;68.80
48216;BME280;34005;48.844;10.098;2023-02-23T02:49:19;96262.25;;;9.03;68.45
48216;BME280;34005;48.844;10.098;2023-02-23T02:51:57;96267.81;;;9.00;69.07
48216;BME280;34005;48.844;10.098;2023-02-23T02:54:31;96268.28;;;9.03;68.77
48216;BME280;34005;48.844;10.098;2023-02-23T02:57:03;96274.28;;;9.04;68.33
48216;BME280;34005;48.844;10.098;2023-02-23T02:59:41;96276.72;;;9.05;68.43
48216;BME280;34005;48.844;10.098;2023-02-23T03:02:27;96271.50;;;9.05;68.24
48216;BME280;34005;48.844;10.098;2023-02-23T03:05:14;96273.47;;;9.03;68.01
48216;BME280;34005;48.844;10.098;2023-02-23T03:08:08;96273.81;;;9.00;68.50
48216;BME280;34005;48.844;10.098;2023-02-23T03:11:00;96270.97;;;8.95;68.47
48216;BME280;34005;48.844;10.098;2023-02-23T03:13:54;96266.13;;;8.92;68.98
48216;BME280;34005;48.844;10.098;2023-02-23T03:16:46;96272.22;;;8.99;70.09
48216;BME280;34005;48.844;10.098;2023-02-23T03:19:38;96274.72;;;9.07;70.11
48216;BME280;34005;48.844;10.098;2023-02-23T03:22:29;96265.94;;;9.08;68.64
48216;BME280;34005;48.844;10.098;2023-02-23T03:25:18;96272.66;;;9.03;68.64
48216;BME280;34005;48.844;10.098;2023-02-23T03:28:14;96277.13;;;8.94;68.66
48216;BME280;34005;48.844;10.098;2023-02-23T03:31:08;96278.13;;;8.93;68.96
48216;BME280;34005;48.844;10.098;2023-02-23T03:34:00;96283.34;;;8.93;68.78
48216;BME280;34005;48.844;10.098;2023-02-23T03:39:19;96281.09;;;8.90;68.58
48216;BME280;34005;48.844;10.098;2023-02-23T03:42:10;96277.03;;;8.87;68.92
48216;BME280;34005;48.844;10.098;2023-02-23T03:45:00;96278.84;;;8.87;68.99
48216;BME280;34005;48.844;10.098;2023-02-23T03:47:48;96277.25;;;8.86;68.81
48216;BME280;34005;48.844;10.098;2023-02-23T03:50:38;96273.63;;;8.87;69.15
48216;BME280;34005;48.844;10.098;2023-02-23T03:53:30;96277.25;;;8.86;69.07
48216;BME280;34005;48.844;10.098;2023-02-23T03:56:18;96280.19;;;8.83;68.99
48216;BME280;34005;48.844;10.098;2023-02-23T03:59:05;96284.41;;;8.84;69.09
48216;BME280;34005;48.844;10.098;2023-02-23T04:01:54;96280.63;;;8.86;69.41
48216;BME280;34005;48.844;10.098;2023-02-23T04:04:41;96275.28;;;8.88;70.09
48216;BME280;34005;48.844;10.098;2023-02-23T04:07:27;96278.13;;;8.93;69.82
48216;BME280;34005;48.844;10.098;2023-02-23T04:10:13;96271.22;;;9.00;70.45
48216;BME280;34005;48.844;10.098;2023-02-23T04:13:02;96277.97;;;9.10;70.29
48216;BME280;34005;48.844;10.098;2023-02-23T04:15:44;96275.00;;;9.13;69.79
48216;BME280;34005;48.844;10.098;2023-02-23T04:18:16;96280.03;;;9.14;69.39
48216;BME280;34005;48.844;10.098;2023-02-23T04:20:44;96275.97;;;9.12;69.31
48216;BME280;34005;48.844;10.098;2023-02-23T04:23:12;96271.13;;;9.08;69.48
48216;BME280;34005;48.844;10.098;2023-02-23T04:25:39;96278.31;;;9.06;69.44
48216;BME280;34005;48.844;10.098;2023-02-23T04:28:07;96284.69;;;9.04;69.57
48216;BME280;34005;48.844;10.098;2023-02-23T04:30:34;96281.44;;;9.02;69.86
48216;BME280;34005;48.844;10.098;2023-02-23T04:33:03;96277.41;;;8.99;69.88
48216;BME280;34005;48.844;10.098;2023-02-23T04:35:32;96280.19;;;8.98;70.36
48216;BME280;34005;48.844;10.098;2023-02-23T04:37:59;96280.38;;;8.96;70.46
48216;BME280;34005;48.844;10.098;2023-02-23T04:40:27;96278.59;;;8.97;70.31
48216;BME280;34005;48.844;10.098;2023-02-23T04:42:55;96282.00;;;8.97;70.30
48216;BME280;34005;48.844;10.098;2023-02-23T04:45:24;96281.34;;;8.95;70.22
48216;BME280;34005;48.844;10.098;2023-02-23T04:47:52;96284.13;;;8.94;70.37
48216;BME280;34005;48.844;10.098;2023-02-23T04:50:20;96279.22;;;8.99;70.22
48216;BME280;34005;48.844;10.098;2023-02-23T04:52:49;96279.38;;;8.97;70.07
48216;BME280;34005;48.844;10.098;2023-02-23T04:55:20;96283.34;;;8.93;69.92
48216;BME280;34005;48.844;10.098;2023-02-23T04:57:48;96284.03;;;8.87;70.01
48216;BME280;34005;48.844;10.098;2023-02-23T05:00:17;96286.00;;;8.85;70.30
48216;BME280;34005;48.844;10.098;2023-02-23T05:02:44;96287.97;;;8.83;70.39
48216;BME280;34005;48.844;10.098;2023-02-23T05:05:14;96284.75;;;8.81;70.52
48216;BME280;34005;48.844;10.098;2023-02-23T05:07:42;96283.31;;;8.78;70.73
48216;BME280;34005;48.844;10.098;2023-02-23T05:10:11;96286.28;;;8.75;71.30
48216;BME280;34005;48.844;10.098;2023-02-23T05:12:39;96282.06;;;8.74;71.05
48216;BME280;34005;48.844;10.098;2023-02-23T05:15:07;96289.84;;;8.74;71.50
48216;BME280;34005;48.844;10.098;2023-02-23T05:17:37;96274.25;;;8.74;71.46
48216;BME280;34005;48.844;10.098;2023-02-23T05:20:06;96283.53;;;8.77;71.58
48216;BME280;34005;48.844;10.098;2023-02-23T05:22:34;96276.50;;;8.77;71.32
48216;BME280;34005;48.844;10.098;2023-02-23T05:25:01;96277.31;;;8.78;71.44
48216;BME280;34005;48.844;10.098;2023-02-23T05:27:31;96275.50;;;8.78;71.67
48216;BME280;34005;48.844;10.098;2023-02-23T05:29:59;96277.16;;;8.79;71.45
48216;BME280;34005;48.844;10.098;2023-02-23T05:32:27;96275.34;;;8.80;71.40
48216;BME280;34005;48.844;10.098;2023-02-23T05:34:55;96277.16;;;8.79;71.66
48216;BME280;34005;48.844;10.098;2023-02-23T05:37:23;96276.31;;;8.79;71.99
48216;BME280;34005;48.844;10.098;2023-02-23T05:39:50;96275.50;;;8.78;72.08
48216;BME280;34005;48.844;10.098;2023-02-23T05:42:18;96280.72;;;8.78;72.15
48216;BME280;34005;48.844;10.098;2023-02-23T05:44:47;96277.78;;;8.81;72.37
48216;BME280;34005;48.844;10.098;2023-02-23T05:47:15;96283.59;;;8.83;72.38
48216;BME280;34005;48.844;10.098;2023-02-23T05:49:43;96284.03;;;8.87;72.40
48216;BME280;34005;48.844;10.098;2023-02-23T05:52:11;96282.06;;;8.89;72.25
48216;BME280;34005;48.844;10.098;2023-02-23T05:54:39;96283.25;;;8.86;72.16
48216;BME280;34005;48.844;10.098;2023-02-23T05:57:06;96282.59;;;8.84;72.88
48216;BME280;34005;48.844;10.098;2023-02-23T05:59:34;96285.31;;;8.91;73.91
48216;BME280;34005;48.844;10.098;2023-02-23T06:02:03;96286.56;;;8.95;73.04
48216;BME280;34005;48.844;10.098;2023-02-23T06:04:31;96286.56;;;8.95;72.88
48216;BME280;34005;48.844;10.098;2023-02-23T06:06:59;96288.16;;;8.96;72.84
48216;BME280;34005;48.844;10.098;2023-02-23T06:09:27;96286.19;;;8.98;73.07
48216;BME280;34005;48.844;10.098;2023-02-23T06:11:55;96289.44;;;9.00;72.93
48216;BME280;34005;48.844;10.098;2023-02-23T06:14:24;96294.28;;;9.03;73.46
48216;BME280;34005;48.844;10.098;2023-02-23T06:16:52;96284.78;;;9.11;73.64
48216;BME280;34005;48.844;10.098;2023-02-23T06:19:21;96294.47;;;9.17;74.42
48216;BME280;34005;48.844;10.098;2023-02-23T06:21:49;96296.53;;;9.21;73.71
48216;BME280;34005;48.844;10.098;2023-02-23T06:24:31;96298.22;;;9.29;74.83
48216;BME280;34005;48.844;10.098;2023-02-23T06:26:59;96297.69;;;9.34;73.71
48216;BME280;34005;48.844;10.098;2023-02-23T06:29:27;96299.47;;;9.33;73.23
48216;BME280;34005;48.844;10.098;2023-02-23T06:31:55;96298.84;;;9.31;73.17
48216;BME280;34005;48.844;10.098;2023-02-23T06:34:26;96305.69;;;9.32;73.27
48216;BME280;34005;48.844;10.098;2023-02-23T06:36:53;96299.47;;;9.33;73.26
48216;BME280;34005;48.844;10.098;2023-02-23T06:39:21;96306.66;;;9.31;73.03
48216;BME280;34005;48.844;10.098;2023-02-23T06:41:50;96314.81;;;9.28;73.24
48216;BME280;34005;48.844;10.098;2023-02-23T06:44:18;96318.59;;;9.25;73.39
48216;BME280;34005;48.844;10.098;2023-02-23T06:46:46;96311.97;;;9.23;73.12
48216;BME280;34005;48.844;10.098;2023-02-23T06:49:13;96307.91;;;9.20;73.29
48216;BME280;34005;48.844;10.098;2023-02-23T06:51:42;96321.91;;;9.19;73.44
48216;BME280;34005;48.844;10.098;2023-02-23T06:54:09;96322.09;;;9.18;73.57
48216;BME280;34005;48.844;10.098;2023-02-23T06:56:37;96320.50;;;9.17;73.51
48216;BME280;34005;48.844;10.098;2023-02-23T06:59:06;96322.09;;;9.18;73.88
48216;BME280;34005;48.844;10.098;2023-02-23T07:01:33;96329.25;;;9.16;74.03
48216;BME280;34005;48.844;10.098;2023-02-23T07:04:03;96331.25;;;9.14;73.99
48216;BME280;34005;48.844;10.098;2023-02-23T07:06:32;96329.63;;;9.13;74.47
48216;BME280;34005;48.844;10.098;2023-02-23T07:09:00;96326.88;;;9.14;74.79
48216;BME280;34005;48.844;10.098;2023-02-23T07:11:28;96333.75;;;9.22;74.72
48216;BME280;34005;48.844;10.098;2023-02-23T07:13:56;96332.69;;;9.31;75.53
48216;BME280;34005;48.844;10.098;2023-02-23T07:16:25;96338.59;;;9.40;74.85
48216;BME280;34005;48.844;10.098;2023-02-23T07:18:54;96340.41;;;9.39;74.13
48216;BME280;34005;48.844;10.098;2023-02-23T07:21:21;96343.38;;;9.36;74.17
48216;BME280;34005;48.844;10.098;2023-02-23T07:23:49;96341.41;;;9.38;74.60
48216;BME280;34005;48.844;10.098;2023-02-23T07:26:17;96338.44;;;9.41;73.86
48216;BME280;34005;48.844;10.098;2023-02-23T07:28:45;96337.25;;;9.44;74.70
48216;BME280;34005;48.844;10.098;2023-02-23T07:31:12;96340.94;;;9.49;75.04
48216;BME280;34005;48.844;10.098;2023-02-23T07:33:42;96342.81;;;9.56;74.87
48216;BME280;34005;48.844;10.098;2023-02-23T07:36:10;96335.00;;;9.56;74.23
48216;BME280;34005;48.844;10.098;2023-02-23T07:38:38;96341.81;;;9.57;74.52
48216;BME280;34005;48.844;10.098;2023-02-23T07:41:05;96337.88;;;9.61;74.38
48216;BME280;34005;48.844;10.098;2023-02-23T07:43:33;96339.13;;;9.65;74.39
48216;BME280;34005;48.844;10.098;2023-02-23T07:46:01;96340.56;;;9.67;74.29
48216;BME280;34005;48.844;10.098;2023-02-23T07:48:28;96345.84;;;9.74;74.65
48216;BME280;34005;48.844;10.098;2023-02-23T07:50:57;96348.53;;;9.81;74.25
48216;BME280;34005;48.844;10.098;2023-02-23T07:53:25;96345.56;;;9.84;73.88
48216;BME280;34005;48.844;10.098;2023-02-23T07:55:57;96352.38;;;9.85;74.27
48216;BME280;34005;48.844;10.098;2023-02-23T07:58:24;96349.59;;;9.86;73.75
48216;BME280;34005;48.844;10.098;2023-02-23T08:00:53;96352.56;;;9.83;73.38
48216;BME280;34005;48.844;10.098;2023-02-23T08:03:21;96352.31;;;9.78;73.29
48216;BME280;34005;48.844;10.098;2023-02-23T08:05:48;96350.06;;;9.75;73.69
48216;BME280;34005;48.844;10.098;2023-02-23T08:08:17;96348.44;;;9.74;73.56
48216;BME280;34005;48.844;10.098;2023-02-23T08:10:45;96347.81;;;9.72;73.54
48216;BME280;34005;48.844;10.098;2023-02-23T08:13:15;96347.19;;;9.70;73.28
48216;BME280;34005;48.844;10.098;2023-02-23T08:15:43;96350.97;;;9.67;73.58
48216;BME280;34005;48.844;10.098;2023-02-23T08:18:10;96351.16;;;9.66;74.09
48216;BME280;34005;48.844;10.098;2023-02-23T08:20:38;96351.16;;;9.66;73.99
48216;BME280;34005;48.844;10.098;2023-02-23T08:23:06;96352.41;;;9.70;74.83
48216;BME280;34005;48.844;10.098;2023-02-23T08:25:35;96356.09;;;9.76;74.29
48216;BME280;34005;48.844;10.098;2023-02-23T08:28:03;96362.72;;;9.78;74.03
48216;BME280;34005;48.844;10.098;2023-02-23T08:30:32;96360.56;;;9.82;73.79
48216;BME280;34005;48.844;10.098;2023-02-23T08:33:00;96358.59;;;9.84;73.57
48216;BME280;34005;48.844;10.098;2023-02-23T08:35:28;96361.78;;;9.86;73.48
48216;BME280;34005;48.844;10.098;2023-02-23T08:37:56;96365.03;;;9.88;73.71
48216;BME280;34005;48.844;10.098;2023-02-23T08:40:24;96365.47;;;9.92;73.80
48216;BME280;34005;48.844;10.098;2023-02-23T08:42:54;96362.31;;;9.96;73.93
48216;BME280;34005;48.844;10.098;2023-02-23T08:45:22;96360.78;;;10.02;73.52
48216;BME280;34005;48.844;10.098;2023-02-23T08:47:49;96358.81;;;10.04;73.47
48216;BME280;34005;48.844;10.098;2023-02-23T08:50:17;96358.44;;;10.07;74.02
48216;BME280;34005;48.844;10.098;2023-02-23T08:52:45;96353.28;;;10.14;73.73
48216;BME280;34005;48.844;10.098;2023-02-23T08:55:12;96354.97;;;10.21;73.46
48216;BME280;34005;48.844;10.098;2023-02-23T08:57:41;96361.72;;;10.30;73.53
48216;BME280;34005;48.844;10.098;2023-02-23T09:00:12;96361.16;;;10.35;73.71
48216;BME280;34005;48.844;10.098;2023-02-23T09:02:43;96357.59;;;10.43;74.17
48216;BME280;34005;48.844;10.098;2023-02-23T09:05:13;96369.56;;;10.52;74.20
48216;BME280;34005;48.844;10.098;2023-02-23T09:07:41;96364.00;;;10.62;74.45
48216;BME280;34005;48.844;10.098;2023-02-23T09:10:11;96358.22;;;10.66;72.86
48216;BME280;34005;48.844;10.098;2023-02-23T09:12:39;96364.22;;;10.67;72.19
48216;BME280;34005;48.844;10.098;2023-02-23T09:15:08;96373.06;;;10.66;71.89
48216;BME280;34005;48.844;10.098;2023-02-23T09:17:37;96368.91;;;10.71;72.96
48216;BME280;34005;48.844;10.098;2023-02-23T09:20:05;96368.34;;;10.76;72.22
48216;BME280;34005;48.844;10.098;2023-02-23T09:22:33;96372.19;;;10.80;71.83
48216;BME280;34005;48.844;10.098;2023-02-23T09:25:02;96368.44;;;10.89;72.92
48216;BME280;34005;48.844;10.098;2023-02-23T09:27:30;96366.88;;;10.95;72.88
48216;BME280;34005;48.844;10.098;2023-02-23T09:29:58;96376.75;;;11.00;72.53
48216;BME280;34005;48.844;10.098;2023-02-23T09:32:26;96377.78;;;11.05;71.82
48216;BME280;34005;48.844;10.098;2023-02-23T09:34:55;96381.47;;;11.11;72.37
48216;BME280;34005;48.844;10.098;2023-02-23T09:37:22;96375.66;;;11.16;72.25
48216;BME280;34005;48.844;10.098;2023-02-23T09:39:50;96378.69;;;11.19;71.74
48216;BME280;34005;48.844;10.098;2023-02-23T09:42:29;96373.28;;;11.21;70.33
48216;BME280;34005;48.844;10.098;2023-02-23T09:45:06;96379.50;;;11.20;70.26
48216;BME280;34005;48.844;10.098;2023-02-23T09:47:44;96378.50;;;11.21;70.13
48216;BME280;34005;48.844;10.098;2023-02-23T09:50:21;96377.88;;;11.19;70.03
48216;BME280;34005;48.844;10.098;2023-02-23T09:52:53;96377.31;;;11.23;71.18
48216;BME280;34005;48.844;10.098;2023-02-23T09:55:23;96381.78;;;11.29;71.03
48216;BME280;34005;48.844;10.098;2023-02-23T09:57:52;96389.66;;;11.36;71.26
48216;BME280;34005;48.844;10.098;2023-02-23T10:00:22;96387.66;;;11.38;69.87
48216;BME280;34005;48.844;10.098;2023-02-23T10:03:11;96383.63;;;11.36;69.29
48216;BME280;34005;48.844;10.098;2023-02-23T10:05:46;96380.41;;;11.33;70.49
48216;BME280;34005;48.844;10.098;2023-02-23T10:08:23;96387.47;;;11.40;70.32
48216;BME280;34005;48.844;10.098;2023-02-23T10:10:58;96380.88;;;11.44;69.21
48216;BME280;34005;48.844;10.098;2023-02-23T10:13:34;96382.88;;;11.42;69.09
48216;BME280;34005;48.844;10.098;2023-02-23T10:16:12;96383.03;;;11.40;68.85
48216;BME280;34005;48.844;10.098;2023-02-23T10:18:48;96391.69;;;11.41;69.15
48216;BME280;34005;48.844;10.098;2023-02-23T10:21:22;96392.13;;;11.44;70.29
48216;BME280;34005;48.844;10.098;2023-02-23T10:23:58;96392.91;;;11.45;69.20
48216;BME280;34005;48.844;10.098;2023-02-23T10:26:32;96395.72;;;11.43;69.16
48216;BME280;34005;48.844;10.098;2023-02-23T10:29:02;96391.50;;;11.42;69.30
48216;BME280;34005;48.844;10.098;2023-02-23T10:31:36;96391.50;;;11.42;69.47
48216;BME280;34005;48.844;10.098;2023-02-23T10:34:12;96387.25;;;11.41;68.56
48216;BME280;34005;48.844;10.098;2023-02-23T10:36:42;96396.09;;;11.40;68.89
48216;BME280;34005;48.844;10.098;2023-02-23T10:39:12;96391.91;;;11.39;69.53
48216;BME280;34005;48.844;10.098;2023-02-23T10:41:41;96387.66;;;11.38;68.77
48216;BME280;34005;48.844;10.098;2023-02-23T10:44:16;96385.63;;;11.33;68.48
48216;BME280;34005;48.844;10.098;2023-02-23T10:46:49;96389.59;;;11.29;69.13
48216;BME280;34005;48.844;10.098;2023-02-23T10:49:23;96388.00;;;11.28;68.69
48216;BME280;34005;48.844;10.098;2023-02-23T10:51:57;96394.41;;;11.26;68.76
48216;BME280;34005;48.844;10.098;2023-02-23T10:54:36;96391.78;;;11.26;68.74
48216;BME280;34005;48.844;10.098;2023-02-23T10:57:06;96392.41;;;11.28;69.43
48216;BME280;34005;48.844;10.098;2023-02-23T10:59:34;96387.03;;;11.36;69.25
48216;BME280;34005;48.844;10.098;2023-02-23T11:02:20;96389.28;;;11.39;68.80
48216;BME280;34005;48.844;10.098;2023-02-23T11:04:50;96389.47;;;11.38;68.21
48216;BME280;34005;48.844;10.098;2023-02-23T11:07:23;96394.09;;;11.42;68.89
48216;BME280;34005;48.844;10.098;2023-02-23T11:09:57;96390.34;;;11.51;69.25
48216;BME280;34005;48.844;10.098;2023-02-23T11:12:26;96385.53;;;11.55;68.33
48216;BME280;34005;48.844;10.098;2023-02-23T11:14:56;96389.56;;;11.58;68.70
48216;BME280;34005;48.844;10.098;2023-02-23T11:17:27;96383.78;;;11.62;67.98
48216;BME280;34005;48.844;10.098;2023-02-23T11:20:00;96388.59;;;11.65;69.06
48216;BME280;34005;48.844;10.098;2023-02-23T11:22:33;96381.81;;;11.71;69.13
48216;BME280;34005;48.844;10.098;2023-02-23T11:25:13;96373.38;;;11.75;67.66
48216;BME280;34005;48.844;10.098;2023-02-23T11:27:45;96376.22;;;11.81;68.09
48216;BME280;34005;48.844;10.098;2023-02-23T11:30:19;96373.66;;;11.87;67.95
48216;BME280;34005;48.844;10.098;2023-02-23T11:32:49;96368.66;;;11.92;67.92
48216;BME280;34005;48.844;10.098;2023-02-23T11:35:28;96365.88;;;12.01;67.85
48216;BME280;34005;48.844;10.098;2023-02-23T11:37:57;96365.91;;;12.07;67.62
48216;BME280;34005;48.844;10.098;2023-02-23T11:40:26;96357.47;;;12.12;67.22
48216;BME280;34005;48.844;10.098;2023-02-23T11:42:56;96362.72;;;12.19;66.47
48216;BME280;34005;48.844;10.098;2023-02-23T11:45:25;96353.84;;;12.26;66.36
48216;BME280;34005;48.844;10.098;2023-02-23T11:47:55;96355.88;;;12.31;66.13
48216;BME280;34005;48.844;10.098;2023-02-23T11:50:27;96351.06;;;12.34;65.48
48216;BME280;34005;48.844;10.098;2023-02-23T11:53:00;96357.50;;;12.39;65.91
48216;BME280;34005;48.844;10.098;2023-02-23T11:55:29;96363.97;;;12.43;65.34
48216;BME280;34005;48.844;10.098;2023-02-23T11:58:07;96352.09;;;12.47;64.85
48216;BME280;34005;48.844;10.098;2023-02-23T12:00:35;96350.69;;;12.51;64.47
48216;BME280;34005;48.844;10.098;2023-02-23T12:03:03;96347.47;;;12.55;64.69
48216;BME280;34005;48.844;10.098;2023-02-23T12:05:32;96342.25;;;12.62;64.29
48216;BME280;34005;48.844;10.098;2023-02-23T12:08:04;96344.66;;;12.64;63.83
48216;BME280;34005;48.844;10.098;2023-02-23T12:10:36;96344.25;;;12.67;64.27
48216;BME280;34005;48.844;10.098;2023-02-23T12:13:20;96339.81;;;12.67;63.88
48216;BME280;34005;48.844;10.098;2023-02-23T12:15:54;96340.03;;;12.72;64.79
48216;BME280;34005;48.844;10.098;2023-02-23T12:18:34;96336.22;;;12.82;64.77
48216;BME280;34005;48.844;10.098;2023-02-23T12:21:14;96341.84;;;12.85;63.26
48216;BME280;34005;48.844;10.098;2023-02-23T12:23:47;96339.63;;;12.89;63.25
48216;BME280;34005;48.844;10.098;2023-02-23T12:26:19;96330.97;;;12.95;63.47
48216;BME280;34005;48.844;10.098;2023-02-23T12:28:52;96332.97;;;12.99;62.37
48216;BME280;34005;48.844;10.098;2023-02-23T12:31:27;96330.97;;;12.95;62.85
48216;BME280;34005;48.844;10.098;2023-02-23T12:33:58;96328.34;;;12.95;62.70
48216;BME280;34005;48.844;10.098;2023-02-23T12:36:33;96326.53;;;13.02;63.19
48216;BME280;34005;48.844;10.098;2023-02-23T12:39:10;96322.69;;;13.05;63.04
48216;BME280;34005;48.844;10.098;2023-02-23T12:41:47;96318.06;;;13.07;62.08
48216;BME280;34005;48.844;10.098;2023-02-23T12:44:29;96315.41;;;13.13;61.73
48216;BME280;34005;48.844;10.098;2023-02-23T12:47:00;96310.56;;;13.24;62.11
48216;BME280;34005;48.844;10.098;2023-02-23T12:49:35;96310.16;;;13.27;61.41
48216;BME280;34005;48.844;10.098;2023-02-23T12:52:09;96314.00;;;13.31;61.08
48216;BME280;34005;48.844;10.098;2023-02-23T12:54:42;96318.44;;;13.30;60.94
48216;BME280;34005;48.844;10.098;2023-02-23T12:57:18;96308.75;;;13.31;61.75
48216;BME280;34005;48.844;10.098;2023-02-23T13:00:29;96299.28;;;13.36;60.89
48216;BME280;34005;48.844;10.098;2023-02-23T13:03:21;96299.66;;;13.40;60.72
48216;BME280;34005;48.844;10.098;2023-02-23T13:05:55;96303.91;;;13.41;61.12
48216;BME280;34005;48.844;10.098;2023-02-23T13:08:36;96300.69;;;13.39;61.57
48216;BME280;34005;48.844;10.098;2023-02-23T13:11:15;96298.66;;;13.41;62.36
48216;BME280;34005;48.844;10.098;2023-02-23T13:13:51;96297.03;;;13.40;61.48
48216;BME280;34005;48.844;10.098;2023-02-23T13:16:25;96295.44;;;13.39;60.86
48216;BME280;34005;48.844;10.098;2023-02-23T13:19:02;96300.28;;;13.35;60.79
48216;BME280;34005;48.844;10.098;2023-02-23T13:21:33;96301.50;;;13.33;60.58
48216;BME280;34005;48.844;10.098;2023-02-23T13:24:05;96299.91;;;13.32;61.53
48216;BME280;34005;48.844;10.098;2023-02-23T13:26:42;96299.09;;;13.31;62.20
48216;BME280;34005;48.844;10.098;2023-02-23T13:29:23;96293.44;;;13.28;60.94
48216;BME280;34005;48.844;10.098;2023-02-23T13:31:53;96297.06;;;13.27;61.17